sensor_id;sensor_type;location;lat;lon;timestamp;P1;durP1;ratioP1;P2;durP2;ratioP2
76953;SDS011;65893;51.698;-0.292;2024-03-08T00:02:17;52.72;;;22.38;;
76953;SDS011;65893;51.698;-0.292;2024-03-08T00:04:43;56.83;;;22.08;;
76953;SDS011;65893;51.698;-0.292;2024-03-08T00:07:09;53.40;;;21.25;;
76953;SDS011;65893;51.698;-0.292;2024-03-08T00:09:36;54.97;;;23.65;;
76953;SDS011;65893;51.698;-0.292;2024-03-08T00:12:02;54.05;;;23.33;;
76953;SDS011;65893;51.698;-0.292;2024-03-08T00:14:28;54.90;;;23.92;;
76953;SDS011;65893;51.698;-0.292;2024-03-08T00:16:54;50.35;;;24.02;;
76953;SDS011;65893;51.698;-0.292;2024-03-08T00:19:20;55.55;;;22.90;;
76953;SDS011;65893;51.698;-0.292;2024-03-08T00:21:46;57.38;;;23.58;;
76953;SDS011;65893;51.698;-0.292;2024-03-08T00:24:12;59.38;;;23.67;;
76953;SDS011;65893;51.698;-0.292;2024-03-08T00:26:38;58.25;;;25.70;;
76953;SDS011;65893;51.698;-0.292;2024-03-08T00:29:04;60.40;;;23.70;;
76953;SDS011;65893;51.698;-0.292;2024-03-08T00:31:31;59.90;;;26.52;;
76953;SDS011;65893;51.698;-0.292;2024-03-08T00:33:57;53.97;;;22.45;;
76953;SDS011;65893;51.698;-0.292;2024-03-08T00:36:23;62.03;;;27.52;;
76953;SDS011;65893;51.698;-0.292;2024-03-08T00:38:50;66.22;;;26.20;;
76953;SDS011;65893;51.698;-0.292;2024-03-08T00:41:16;59.30;;;25.45;;
76953;SDS011;65893;51.698;-0.292;2024-03-08T00:43:42;58.20;;;23.83;;
76953;SDS011;65893;51.698;-0.292;2024-03-08T00:46:08;52.00;;;24.52;;
76953;SDS011;65893;51.698;-0.292;2024-03-08T00:48:34;54.50;;;23.85;;
76953;SDS011;65893;51.698;-0.292;2024-03-08T00:51:01;68.38;;;27.63;;
76953;SDS011;65893;51.698;-0.292;2024-03-08T00:53:27;64.97;;;27.60;;
76953;SDS011;65893;51.698;-0.292;2024-03-08T00:55:53;55.35;;;25.38;;
76953;SDS011;65893;51.698;-0.292;2024-03-08T00:58:20;59.30;;;24.70;;
76953;SDS011;65893;51.698;-0.292;2024-03-08T01:00:46;69.30;;;27.80;;
76953;SDS011;65893;51.698;-0.292;2024-03-08T01:03:12;56.80;;;25.42;;
76953;SDS011;65893;51.698;-0.292;2024-03-08T01:05:38;70.03;;;27.83;;
76953;SDS011;65893;51.698;-0.292;2024-03-08T01:08:05;63.35;;;27.27;;
76953;SDS011;65893;51.698;-0.292;2024-03-08T01:10:32;60.75;;;26.92;;
76953;SDS011;65893;51.698;-0.292;2024-03-08T01:12:58;68.78;;;27.25;;
76953;SDS011;65893;51.698;-0.292;2024-03-08T01:15:24;59.92;;;27.35;;
76953;SDS011;65893;51.698;-0.292;2024-03-08T01:17:50;62.13;;;27.67;;
76953;SDS011;65893;51.698;-0.292;2024-03-08T01:20:16;65.78;;;28.02;;
76953;SDS011;65893;51.698;-0.292;2024-03-08T01:22:42;58.53;;;25.15;;
76953;SDS011;65893;51.698;-0.292;2024-03-08T01:25:08;69.30;;;27.98;;
76953;SDS011;65893;51.698;-0.292;2024-03-08T01:27:34;58.65;;;26.20;;
76953;SDS011;65893;51.698;-0.292;2024-03-08T01:30:02;56.53;;;25.77;;
76953;SDS011;65893;51.698;-0.292;2024-03-08T01:32:29;62.75;;;26.90;;
76953;SDS011;65893;51.698;-0.292;2024-03-08T01:34:55;57.63;;;27.33;;
76953;SDS011;65893;51.698;-0.292;2024-03-08T01:37:21;59.15;;;26.17;;
76953;SDS011;65893;51.698;-0.292;2024-03-08T01:39:47;58.38;;;26.75;;
76953;SDS011;65893;51.698;-0.292;2024-03-08T01:42:13;64.47;;;25.95;;
76953;SDS011;65893;51.698;-0.292;2024-03-08T01:44:40;62.60;;;25.58;;
76953;SDS011;65893;51.698;-0.292;2024-03-08T01:47:06;55.67;;;25.67;;
76953;SDS011;65893;51.698;-0.292;2024-03-08T01:49:33;62.50;;;26.35;;
76953;SDS011;65893;51.698;-0.292;2024-03-08T01:51:58;57.95;;;26.45;;
76953;SDS011;65893;51.698;-0.292;2024-03-08T01:54:24;63.00;;;27.02;;
76953;SDS011;65893;51.698;-0.292;2024-03-08T01:56:52;66.85;;;27.27;;
76953;SDS011;65893;51.698;-0.292;2024-03-08T01:59:18;62.92;;;26.60;;
76953;SDS011;65893;51.698;-0.292;2024-03-08T02:01:44;57.95;;;22.92;;
76953;SDS011;65893;51.698;-0.292;2024-03-08T02:04:10;48.60;;;23.33;;
76953;SDS011;65893;51.698;-0.292;2024-03-08T02:06:36;60.72;;;25.55;;
76953;SDS011;65893;51.698;-0.292;2024-03-08T02:09:03;57.88;;;24.00;;
76953;SDS011;65893;51.698;-0.292;2024-03-08T02:11:35;54.70;;;25.52;;
76953;SDS011;65893;51.698;-0.292;2024-03-08T02:14:01;57.97;;;25.92;;
76953;SDS011;65893;51.698;-0.292;2024-03-08T02:16:27;59.40;;;25.40;;
76953;SDS011;65893;51.698;-0.292;2024-03-08T02:18:53;59.22;;;25.13;;
76953;SDS011;65893;51.698;-0.292;2024-03-08T02:21:19;51.72;;;23.38;;
76953;SDS011;65893;51.698;-0.292;2024-03-08T02:23:46;47.97;;;22.80;;
76953;SDS011;65893;51.698;-0.292;2024-03-08T02:26:12;59.70;;;24.73;;
76953;SDS011;65893;51.698;-0.292;2024-03-08T02:28:38;57.28;;;26.63;;
76953;SDS011;65893;51.698;-0.292;2024-03-08T02:31:07;58.88;;;24.85;;
76953;SDS011;65893;51.698;-0.292;2024-03-08T02:33:33;58.13;;;23.25;;
76953;SDS011;65893;51.698;-0.292;2024-03-08T02:35:59;58.03;;;24.67;;
76953;SDS011;65893;51.698;-0.292;2024-03-08T02:38:25;56.42;;;23.25;;
76953;SDS011;65893;51.698;-0.292;2024-03-08T02:40:52;57.55;;;25.02;;
76953;SDS011;65893;51.698;-0.292;2024-03-08T02:43:18;56.40;;;22.17;;
76953;SDS011;65893;51.698;-0.292;2024-03-08T02:45:45;50.17;;;21.30;;
76953;SDS011;65893;51.698;-0.292;2024-03-08T02:48:12;56.20;;;24.00;;
76953;SDS011;65893;51.698;-0.292;2024-03-08T02:50:38;54.88;;;23.73;;
76953;SDS011;65893;51.698;-0.292;2024-03-08T02:53:07;61.10;;;25.95;;
76953;SDS011;65893;51.698;-0.292;2024-03-08T02:55:34;52.00;;;22.17;;
76953;SDS011;65893;51.698;-0.292;2024-03-08T02:58:01;56.95;;;23.48;;
76953;SDS011;65893;51.698;-0.292;2024-03-08T03:00:28;54.28;;;21.42;;
76953;SDS011;65893;51.698;-0.292;2024-03-08T03:02:56;57.40;;;22.38;;
76953;SDS011;65893;51.698;-0.292;2024-03-08T03:05:22;49.78;;;21.85;;
76953;SDS011;65893;51.698;-0.292;2024-03-08T03:07:48;48.50;;;20.75;;
76953;SDS011;65893;51.698;-0.292;2024-03-08T03:10:14;50.72;;;22.55;;
76953;SDS011;65893;51.698;-0.292;2024-03-08T03:12:42;45.03;;;21.08;;
76953;SDS011;65893;51.698;-0.292;2024-03-08T03:15:08;55.40;;;24.55;;
76953;SDS011;65893;51.698;-0.292;2024-03-08T03:17:34;55.92;;;22.52;;
76953;SDS011;65893;51.698;-0.292;2024-03-08T03:20:00;55.75;;;22.75;;
76953;SDS011;65893;51.698;-0.292;2024-03-08T03:22:34;52.28;;;23.40;;
76953;SDS011;65893;51.698;-0.292;2024-03-08T03:25:00;52.10;;;21.40;;
76953;SDS011;65893;51.698;-0.292;2024-03-08T03:27:27;65.90;;;23.83;;
76953;SDS011;65893;51.698;-0.292;2024-03-08T03:29:55;53.33;;;22.35;;
76953;SDS011;65893;51.698;-0.292;2024-03-08T03:32:22;53.83;;;23.40;;
76953;SDS011;65893;51.698;-0.292;2024-03-08T03:34:49;50.75;;;22.13;;
76953;SDS011;65893;51.698;-0.292;2024-03-08T03:37:18;49.38;;;21.10;;
76953;SDS011;65893;51.698;-0.292;2024-03-08T03:39:44;52.22;;;23.60;;
76953;SDS011;65893;51.698;-0.292;2024-03-08T03:42:17;55.97;;;22.85;;
76953;SDS011;65893;51.698;-0.292;2024-03-08T03:44:46;57.22;;;25.42;;
76953;SDS011;65893;51.698;-0.292;2024-03-08T03:47:13;58.63;;;23.05;;
76953;SDS011;65893;51.698;-0.292;2024-03-08T03:49:40;52.15;;;22.60;;
76953;SDS011;65893;51.698;-0.292;2024-03-08T03:52:06;54.90;;;21.48;;
76953;SDS011;65893;51.698;-0.292;2024-03-08T03:54:32;61.38;;;22.42;;
76953;SDS011;65893;51.698;-0.292;2024-03-08T03:56:58;55.53;;;25.90;;
76953;SDS011;65893;51.698;-0.292;2024-03-08T03:59:25;54.70;;;22.30;;
76953;SDS011;65893;51.698;-0.292;2024-03-08T04:01:52;57.15;;;24.13;;
76953;SDS011;65893;51.698;-0.292;2024-03-08T04:04:18;55.05;;;22.52;;
76953;SDS011;65893;51.698;-0.292;2024-03-08T04:06:44;49.25;;;21.52;;
76953;SDS011;65893;51.698;-0.292;2024-03-08T04:09:10;59.65;;;20.90;;
76953;SDS011;65893;51.698;-0.292;2024-03-08T04:11:37;58.67;;;22.23;;
76953;SDS011;65893;51.698;-0.292;2024-03-08T04:14:03;53.47;;;22.05;;
76953;SDS011;65893;51.698;-0.292;2024-03-08T04:16:30;58.58;;;22.80;;
76953;SDS011;65893;51.698;-0.292;2024-03-08T04:18:56;46.75;;;21.95;;
76953;SDS011;65893;51.698;-0.292;2024-03-08T04:21:22;52.70;;;19.48;;
76953;SDS011;65893;51.698;-0.292;2024-03-08T04:23:48;49.25;;;20.88;;
76953;SDS011;65893;51.698;-0.292;2024-03-08T04:26:15;55.80;;;23.88;;
76953;SDS011;65893;51.698;-0.292;2024-03-08T04:28:41;42.72;;;17.95;;
76953;SDS011;65893;51.698;-0.292;2024-03-08T04:31:07;50.40;;;21.88;;
76953;SDS011;65893;51.698;-0.292;2024-03-08T04:33:33;54.88;;;20.60;;
76953;SDS011;65893;51.698;-0.292;2024-03-08T04:36:00;60.38;;;23.15;;
76953;SDS011;65893;51.698;-0.292;2024-03-08T04:38:29;49.97;;;20.92;;
76953;SDS011;65893;51.698;-0.292;2024-03-08T04:40:55;41.65;;;18.95;;
76953;SDS011;65893;51.698;-0.292;2024-03-08T04:43:22;51.42;;;20.17;;
76953;SDS011;65893;51.698;-0.292;2024-03-08T04:45:50;52.58;;;21.77;;
76953;SDS011;65893;51.698;-0.292;2024-03-08T04:48:16;57.08;;;25.25;;
76953;SDS011;65893;51.698;-0.292;2024-03-08T04:50:42;47.05;;;21.35;;
76953;SDS011;65893;51.698;-0.292;2024-03-08T04:53:09;54.97;;;21.73;;
76953;SDS011;65893;51.698;-0.292;2024-03-08T04:55:35;50.30;;;22.10;;
76953;SDS011;65893;51.698;-0.292;2024-03-08T04:58:02;59.35;;;23.63;;
76953;SDS011;65893;51.698;-0.292;2024-03-08T05:00:30;64.10;;;23.67;;
76953;SDS011;65893;51.698;-0.292;2024-03-08T05:02:57;53.97;;;23.10;;
76953;SDS011;65893;51.698;-0.292;2024-03-08T05:05:23;57.13;;;23.52;;
76953;SDS011;65893;51.698;-0.292;2024-03-08T05:07:50;56.05;;;23.00;;
76953;SDS011;65893;51.698;-0.292;2024-03-08T05:10:16;62.47;;;24.15;;
76953;SDS011;65893;51.698;-0.292;2024-03-08T05:12:42;62.30;;;23.30;;
76953;SDS011;65893;51.698;-0.292;2024-03-08T05:15:08;51.05;;;22.77;;
76953;SDS011;65893;51.698;-0.292;2024-03-08T05:17:34;57.80;;;26.88;;
76953;SDS011;65893;51.698;-0.292;2024-03-08T05:20:00;57.25;;;23.58;;
76953;SDS011;65893;51.698;-0.292;2024-03-08T05:22:26;62.28;;;23.20;;
76953;SDS011;65893;51.698;-0.292;2024-03-08T05:24:52;64.55;;;24.75;;
76953;SDS011;65893;51.698;-0.292;2024-03-08T05:27:18;62.42;;;23.98;;
76953;SDS011;65893;51.698;-0.292;2024-03-08T05:29:44;60.85;;;24.13;;
76953;SDS011;65893;51.698;-0.292;2024-03-08T05:32:11;55.60;;;21.83;;
76953;SDS011;65893;51.698;-0.292;2024-03-08T05:34:37;54.28;;;23.08;;
76953;SDS011;65893;51.698;-0.292;2024-03-08T05:37:03;63.55;;;27.10;;
76953;SDS011;65893;51.698;-0.292;2024-03-08T05:39:30;63.78;;;23.08;;
76953;SDS011;65893;51.698;-0.292;2024-03-08T05:41:56;55.33;;;22.58;;
76953;SDS011;65893;51.698;-0.292;2024-03-08T05:44:22;57.58;;;24.48;;
76953;SDS011;65893;51.698;-0.292;2024-03-08T05:46:48;54.95;;;22.38;;
76953;SDS011;65893;51.698;-0.292;2024-03-08T05:49:15;58.33;;;23.92;;
76953;SDS011;65893;51.698;-0.292;2024-03-08T05:51:41;58.25;;;24.17;;
76953;SDS011;65893;51.698;-0.292;2024-03-08T05:54:08;62.03;;;25.48;;
76953;SDS011;65893;51.698;-0.292;2024-03-08T05:56:36;54.28;;;22.23;;
76953;SDS011;65893;51.698;-0.292;2024-03-08T05:59:02;56.85;;;25.40;;
76953;SDS011;65893;51.698;-0.292;2024-03-08T06:01:28;53.90;;;22.85;;
76953;SDS011;65893;51.698;-0.292;2024-03-08T06:03:56;59.75;;;23.90;;
76953;SDS011;65893;51.698;-0.292;2024-03-08T06:06:22;51.53;;;22.05;;
76953;SDS011;65893;51.698;-0.292;2024-03-08T06:08:49;55.90;;;21.38;;
76953;SDS011;65893;51.698;-0.292;2024-03-08T06:11:15;57.92;;;25.58;;
76953;SDS011;65893;51.698;-0.292;2024-03-08T06:13:42;63.00;;;24.83;;
76953;SDS011;65893;51.698;-0.292;2024-03-08T06:16:08;57.65;;;25.48;;
76953;SDS011;65893;51.698;-0.292;2024-03-08T06:18:35;61.65;;;29.95;;
76953;SDS011;65893;51.698;-0.292;2024-03-08T06:21:04;65.35;;;27.38;;
76953;SDS011;65893;51.698;-0.292;2024-03-08T06:23:33;45.90;;;21.00;;
76953;SDS011;65893;51.698;-0.292;2024-03-08T06:26:03;51.47;;;23.23;;
76953;SDS011;65893;51.698;-0.292;2024-03-08T06:28:29;59.95;;;24.30;;
76953;SDS011;65893;51.698;-0.292;2024-03-08T06:30:57;59.90;;;26.17;;
76953;SDS011;65893;51.698;-0.292;2024-03-08T06:33:23;54.13;;;24.65;;
76953;SDS011;65893;51.698;-0.292;2024-03-08T06:35:51;57.80;;;24.27;;
76953;SDS011;65893;51.698;-0.292;2024-03-08T06:38:17;66.32;;;26.98;;
76953;SDS011;65893;51.698;-0.292;2024-03-08T06:40:44;53.13;;;21.30;;
76953;SDS011;65893;51.698;-0.292;2024-03-08T06:43:13;55.40;;;24.55;;
76953;SDS011;65893;51.698;-0.292;2024-03-08T06:45:41;54.45;;;23.15;;
76953;SDS011;65893;51.698;-0.292;2024-03-08T06:48:07;57.35;;;22.70;;
76953;SDS011;65893;51.698;-0.292;2024-03-08T06:50:34;53.58;;;21.98;;
76953;SDS011;65893;51.698;-0.292;2024-03-08T06:53:01;57.97;;;22.83;;
76953;SDS011;65893;51.698;-0.292;2024-03-08T06:55:28;60.50;;;23.85;;
76953;SDS011;65893;51.698;-0.292;2024-03-08T06:57:54;56.17;;;23.02;;
76953;SDS011;65893;51.698;-0.292;2024-03-08T07:00:20;58.83;;;22.85;;
76953;SDS011;65893;51.698;-0.292;2024-03-08T07:02:51;58.90;;;23.92;;
76953;SDS011;65893;51.698;-0.292;2024-03-08T07:05:18;56.20;;;24.23;;
76953;SDS011;65893;51.698;-0.292;2024-03-08T07:07:45;62.28;;;23.67;;
76953;SDS011;65893;51.698;-0.292;2024-03-08T07:10:13;57.13;;;22.88;;
76953;SDS011;65893;51.698;-0.292;2024-03-08T07:12:40;56.45;;;22.17;;
76953;SDS011;65893;51.698;-0.292;2024-03-08T07:15:07;60.70;;;22.58;;
76953;SDS011;65893;51.698;-0.292;2024-03-08T07:17:38;54.38;;;23.65;;
76953;SDS011;65893;51.698;-0.292;2024-03-08T07:20:04;57.67;;;22.92;;
76953;SDS011;65893;51.698;-0.292;2024-03-08T07:22:35;64.28;;;24.77;;
76953;SDS011;65893;51.698;-0.292;2024-03-08T07:25:02;49.30;;;20.48;;
76953;SDS011;65893;51.698;-0.292;2024-03-08T07:27:46;53.17;;;21.58;;
76953;SDS011;65893;51.698;-0.292;2024-03-08T07:30:12;59.72;;;22.15;;
76953;SDS011;65893;51.698;-0.292;2024-03-08T07:32:58;65.82;;;24.23;;
76953;SDS011;65893;51.698;-0.292;2024-03-08T07:35:24;56.05;;;21.48;;
76953;SDS011;65893;51.698;-0.292;2024-03-08T07:37:51;51.92;;;21.40;;
76953;SDS011;65893;51.698;-0.292;2024-03-08T07:40:19;55.90;;;21.90;;
76953;SDS011;65893;51.698;-0.292;2024-03-08T07:42:45;60.53;;;23.65;;
76953;SDS011;65893;51.698;-0.292;2024-03-08T07:45:11;57.95;;;23.17;;
76953;SDS011;65893;51.698;-0.292;2024-03-08T07:47:38;55.38;;;22.30;;
76953;SDS011;65893;51.698;-0.292;2024-03-08T07:50:05;54.85;;;22.25;;
76953;SDS011;65893;51.698;-0.292;2024-03-08T07:52:33;54.55;;;22.02;;
76953;SDS011;65893;51.698;-0.292;2024-03-08T07:54:59;58.33;;;21.23;;
76953;SDS011;65893;51.698;-0.292;2024-03-08T07:57:25;54.17;;;22.05;;
76953;SDS011;65893;51.698;-0.292;2024-03-08T07:59:51;58.78;;;22.10;;
76953;SDS011;65893;51.698;-0.292;2024-03-08T08:02:17;56.67;;;21.63;;
76953;SDS011;65893;51.698;-0.292;2024-03-08T08:04:43;47.58;;;19.10;;
76953;SDS011;65893;51.698;-0.292;2024-03-08T08:07:12;50.33;;;21.30;;
76953;SDS011;65893;51.698;-0.292;2024-03-08T08:09:41;54.42;;;19.85;;
76953;SDS011;65893;51.698;-0.292;2024-03-08T08:12:08;44.53;;;18.95;;
76953;SDS011;65893;51.698;-0.292;2024-03-08T08:14:37;58.78;;;22.05;;
76953;SDS011;65893;51.698;-0.292;2024-03-08T08:17:04;49.53;;;18.17;;
76953;SDS011;65893;51.698;-0.292;2024-03-08T08:19:30;50.42;;;21.38;;
76953;SDS011;65893;51.698;-0.292;2024-03-08T08:21:57;53.83;;;21.50;;
76953;SDS011;65893;51.698;-0.292;2024-03-08T08:24:23;51.25;;;20.23;;
76953;SDS011;65893;51.698;-0.292;2024-03-08T08:26:49;47.15;;;20.02;;
76953;SDS011;65893;51.698;-0.292;2024-03-08T08:29:15;52.55;;;21.85;;
76953;SDS011;65893;51.698;-0.292;2024-03-08T08:31:41;51.50;;;22.13;;
76953;SDS011;65893;51.698;-0.292;2024-03-08T08:34:09;50.72;;;20.38;;
76953;SDS011;65893;51.698;-0.292;2024-03-08T08:36:36;46.47;;;19.83;;
76953;SDS011;65893;51.698;-0.292;2024-03-08T08:39:03;44.30;;;20.40;;
76953;SDS011;65893;51.698;-0.292;2024-03-08T08:41:30;48.30;;;17.45;;
76953;SDS011;65893;51.698;-0.292;2024-03-08T08:43:56;53.53;;;20.08;;
76953;SDS011;65893;51.698;-0.292;2024-03-08T08:46:24;47.22;;;18.95;;
76953;SDS011;65893;51.698;-0.292;2024-03-08T08:48:51;49.60;;;22.48;;
76953;SDS011;65893;51.698;-0.292;2024-03-08T08:51:17;47.55;;;19.60;;
76953;SDS011;65893;51.698;-0.292;2024-03-08T08:53:43;47.55;;;21.05;;
76953;SDS011;65893;51.698;-0.292;2024-03-08T08:56:12;40.50;;;15.70;;
76953;SDS011;65893;51.698;-0.292;2024-03-08T08:58:38;45.33;;;20.88;;
76953;SDS011;65893;51.698;-0.292;2024-03-08T09:01:06;44.35;;;20.52;;
76953;SDS011;65893;51.698;-0.292;2024-03-08T09:03:32;44.53;;;18.13;;
76953;SDS011;65893;51.698;-0.292;2024-03-08T09:06:00;52.13;;;20.05;;
76953;SDS011;65893;51.698;-0.292;2024-03-08T09:08:27;48.10;;;18.30;;
76953;SDS011;65893;51.698;-0.292;2024-03-08T09:10:53;42.95;;;19.17;;
76953;SDS011;65893;51.698;-0.292;2024-03-08T09:13:19;49.55;;;20.17;;
76953;SDS011;65893;51.698;-0.292;2024-03-08T09:15:46;39.50;;;16.02;;
76953;SDS011;65893;51.698;-0.292;2024-03-08T09:18:12;49.17;;;20.15;;
76953;SDS011;65893;51.698;-0.292;2024-03-08T09:20:38;43.60;;;20.75;;
76953;SDS011;65893;51.698;-0.292;2024-03-08T09:23:06;41.75;;;18.77;;
76953;SDS011;65893;51.698;-0.292;2024-03-08T09:25:33;45.42;;;20.83;;
76953;SDS011;65893;51.698;-0.292;2024-03-08T09:27:59;42.58;;;19.92;;
76953;SDS011;65893;51.698;-0.292;2024-03-08T09:30:25;52.70;;;21.75;;
76953;SDS011;65893;51.698;-0.292;2024-03-08T09:32:51;36.35;;;16.52;;
76953;SDS011;65893;51.698;-0.292;2024-03-08T09:35:17;43.88;;;17.98;;
76953;SDS011;65893;51.698;-0.292;2024-03-08T09:37:44;38.38;;;18.17;;
76953;SDS011;65893;51.698;-0.292;2024-03-08T09:40:13;44.35;;;17.98;;
76953;SDS011;65893;51.698;-0.292;2024-03-08T09:42:43;51.88;;;20.35;;
76953;SDS011;65893;51.698;-0.292;2024-03-08T09:45:10;41.17;;;19.17;;
76953;SDS011;65893;51.698;-0.292;2024-03-08T09:47:39;51.20;;;19.27;;
76953;SDS011;65893;51.698;-0.292;2024-03-08T09:50:07;46.33;;;19.42;;
76953;SDS011;65893;51.698;-0.292;2024-03-08T09:52:35;37.45;;;17.42;;
76953;SDS011;65893;51.698;-0.292;2024-03-08T09:55:02;36.05;;;17.75;;
76953;SDS011;65893;51.698;-0.292;2024-03-08T09:57:31;43.85;;;17.80;;
76953;SDS011;65893;51.698;-0.292;2024-03-08T09:59:57;52.22;;;20.00;;
76953;SDS011;65893;51.698;-0.292;2024-03-08T10:02:23;40.80;;;18.30;;
76953;SDS011;65893;51.698;-0.292;2024-03-08T10:04:50;36.85;;;17.65;;
76953;SDS011;65893;51.698;-0.292;2024-03-08T10:07:18;41.58;;;18.15;;
76953;SDS011;65893;51.698;-0.292;2024-03-08T10:09:44;43.70;;;16.85;;
76953;SDS011;65893;51.698;-0.292;2024-03-08T10:12:18;38.47;;;17.33;;
76953;SDS011;65893;51.698;-0.292;2024-03-08T10:14:44;42.95;;;18.10;;
76953;SDS011;65893;51.698;-0.292;2024-03-08T10:17:10;30.88;;;14.45;;
76953;SDS011;65893;51.698;-0.292;2024-03-08T10:19:36;28.80;;;14.80;;
76953;SDS011;65893;51.698;-0.292;2024-03-08T10:22:02;30.67;;;14.90;;
76953;SDS011;65893;51.698;-0.292;2024-03-08T10:24:29;32.78;;;14.13;;
76953;SDS011;65893;51.698;-0.292;2024-03-08T10:26:58;35.90;;;14.48;;
76953;SDS011;65893;51.698;-0.292;2024-03-08T10:29:25;32.35;;;15.52;;
76953;SDS011;65893;51.698;-0.292;2024-03-08T10:31:51;37.40;;;17.25;;
76953;SDS011;65893;51.698;-0.292;2024-03-08T10:34:17;34.85;;;15.52;;
76953;SDS011;65893;51.698;-0.292;2024-03-08T10:36:44;29.58;;;15.13;;
76953;SDS011;65893;51.698;-0.292;2024-03-08T10:39:21;29.48;;;13.80;;
76953;SDS011;65893;51.698;-0.292;2024-03-08T10:41:49;27.15;;;13.68;;
76953;SDS011;65893;51.698;-0.292;2024-03-08T10:49:19;32.67;;;15.18;;
76953;SDS011;65893;51.698;-0.292;2024-03-08T10:51:49;34.95;;;16.15;;
76953;SDS011;65893;51.698;-0.292;2024-03-08T10:54:17;27.67;;;11.73;;
76953;SDS011;65893;51.698;-0.292;2024-03-08T10:56:45;30.00;;;13.40;;
76953;SDS011;65893;51.698;-0.292;2024-03-08T10:59:11;29.17;;;13.95;;
76953;SDS011;65893;51.698;-0.292;2024-03-08T11:01:38;31.13;;;13.75;;
76953;SDS011;65893;51.698;-0.292;2024-03-08T11:04:05;25.50;;;11.60;;
76953;SDS011;65893;51.698;-0.292;2024-03-08T11:09:08;33.63;;;16.23;;
76953;SDS011;65893;51.698;-0.292;2024-03-08T11:11:38;28.73;;;14.27;;
76953;SDS011;65893;51.698;-0.292;2024-03-08T11:14:08;27.92;;;12.65;;
76953;SDS011;65893;51.698;-0.292;2024-03-08T11:16:53;21.45;;;10.95;;
76953;SDS011;65893;51.698;-0.292;2024-03-08T11:21:46;25.50;;;11.80;;
76953;SDS011;65893;51.698;-0.292;2024-03-08T11:24:13;23.75;;;11.90;;
76953;SDS011;65893;51.698;-0.292;2024-03-08T11:26:41;26.00;;;11.48;;
76953;SDS011;65893;51.698;-0.292;2024-03-08T11:34:19;22.33;;;10.43;;
76953;SDS011;65893;51.698;-0.292;2024-03-08T11:36:47;27.60;;;13.55;;
76953;SDS011;65893;51.698;-0.292;2024-03-08T11:39:14;28.85;;;13.15;;
76953;SDS011;65893;51.698;-0.292;2024-03-08T11:41:40;22.42;;;11.82;;
76953;SDS011;65893;51.698;-0.292;2024-03-08T11:44:07;28.15;;;14.68;;
76953;SDS011;65893;51.698;-0.292;2024-03-08T11:46:35;27.80;;;13.57;;
76953;SDS011;65893;51.698;-0.292;2024-03-08T11:49:02;29.98;;;14.20;;
76953;SDS011;65893;51.698;-0.292;2024-03-08T11:51:28;24.80;;;11.88;;
76953;SDS011;65893;51.698;-0.292;2024-03-08T11:53:55;32.75;;;13.30;;
76953;SDS011;65893;51.698;-0.292;2024-03-08T11:56:21;24.30;;;12.48;;
76953;SDS011;65893;51.698;-0.292;2024-03-08T11:58:54;24.55;;;13.70;;
76953;SDS011;65893;51.698;-0.292;2024-03-08T12:01:22;22.27;;;11.30;;
76953;SDS011;65893;51.698;-0.292;2024-03-08T12:03:58;26.45;;;12.32;;
76953;SDS011;65893;51.698;-0.292;2024-03-08T12:06:25;24.80;;;11.20;;
76953;SDS011;65893;51.698;-0.292;2024-03-08T12:08:52;24.23;;;11.57;;
76953;SDS011;65893;51.698;-0.292;2024-03-08T12:11:18;21.70;;;11.32;;
76953;SDS011;65893;51.698;-0.292;2024-03-08T12:13:48;21.85;;;13.05;;
76953;SDS011;65893;51.698;-0.292;2024-03-08T12:16:16;22.67;;;12.10;;
76953;SDS011;65893;51.698;-0.292;2024-03-08T12:18:48;24.20;;;10.05;;
76953;SDS011;65893;51.698;-0.292;2024-03-08T12:21:17;22.05;;;10.80;;
76953;SDS011;65893;51.698;-0.292;2024-03-08T12:23:45;23.90;;;11.60;;
76953;SDS011;65893;51.698;-0.292;2024-03-08T12:26:23;20.90;;;11.00;;
76953;SDS011;65893;51.698;-0.292;2024-03-08T12:28:50;27.33;;;11.95;;
76953;SDS011;65893;51.698;-0.292;2024-03-08T12:31:16;24.08;;;11.50;;
76953;SDS011;65893;51.698;-0.292;2024-03-08T12:33:49;22.95;;;11.13;;
76953;SDS011;65893;51.698;-0.292;2024-03-08T12:36:15;26.45;;;11.60;;
76953;SDS011;65893;51.698;-0.292;2024-03-08T12:38:47;20.33;;;10.52;;
76953;SDS011;65893;51.698;-0.292;2024-03-08T12:41:16;21.13;;;11.75;;
76953;SDS011;65893;51.698;-0.292;2024-03-08T12:43:42;25.90;;;12.25;;
76953;SDS011;65893;51.698;-0.292;2024-03-08T12:46:18;25.65;;;11.93;;
76953;SDS011;65893;51.698;-0.292;2024-03-08T12:48:51;21.25;;;10.48;;
76953;SDS011;65893;51.698;-0.292;2024-03-08T12:51:18;27.42;;;11.38;;
76953;SDS011;65893;51.698;-0.292;2024-03-08T12:53:45;26.10;;;11.85;;
76953;SDS011;65893;51.698;-0.292;2024-03-08T12:56:12;22.45;;;10.60;;
76953;SDS011;65893;51.698;-0.292;2024-03-08T12:58:39;25.10;;;11.93;;
76953;SDS011;65893;51.698;-0.292;2024-03-08T13:01:05;26.73;;;12.57;;
76953;SDS011;65893;51.698;-0.292;2024-03-08T13:03:36;26.30;;;12.98;;
76953;SDS011;65893;51.698;-0.292;2024-03-08T13:06:05;23.27;;;12.02;;
76953;SDS011;65893;51.698;-0.292;2024-03-08T13:08:37;23.58;;;12.10;;
76953;SDS011;65893;51.698;-0.292;2024-03-08T13:11:06;24.42;;;13.65;;
76953;SDS011;65893;51.698;-0.292;2024-03-08T13:13:33;23.80;;;12.07;;
76953;SDS011;65893;51.698;-0.292;2024-03-08T13:16:02;22.23;;;11.85;;
76953;SDS011;65893;51.698;-0.292;2024-03-08T13:18:28;21.02;;;10.88;;
76953;SDS011;65893;51.698;-0.292;2024-03-08T13:20:54;21.05;;;12.63;;
76953;SDS011;65893;51.698;-0.292;2024-03-08T13:23:22;29.55;;;12.77;;
76953;SDS011;65893;51.698;-0.292;2024-03-08T13:25:48;22.92;;;11.20;;
76953;SDS011;65893;51.698;-0.292;2024-03-08T13:28:14;25.55;;;11.15;;
76953;SDS011;65893;51.698;-0.292;2024-03-08T13:30:41;24.30;;;11.65;;
76953;SDS011;65893;51.698;-0.292;2024-03-08T13:33:09;25.35;;;11.35;;
76953;SDS011;65893;51.698;-0.292;2024-03-08T13:35:35;26.42;;;11.75;;
76953;SDS011;65893;51.698;-0.292;2024-03-08T13:38:03;30.88;;;13.07;;
76953;SDS011;65893;51.698;-0.292;2024-03-08T13:40:30;25.38;;;14.13;;
76953;SDS011;65893;51.698;-0.292;2024-03-08T13:42:56;30.80;;;12.48;;
76953;SDS011;65893;51.698;-0.292;2024-03-08T13:45:23;26.70;;;12.90;;
76953;SDS011;65893;51.698;-0.292;2024-03-08T13:47:49;29.38;;;12.63;;
76953;SDS011;65893;51.698;-0.292;2024-03-08T13:50:19;25.50;;;12.50;;
76953;SDS011;65893;51.698;-0.292;2024-03-08T13:52:48;22.02;;;12.45;;
76953;SDS011;65893;51.698;-0.292;2024-03-08T13:55:17;26.52;;;13.35;;
76953;SDS011;65893;51.698;-0.292;2024-03-08T13:57:43;31.08;;;13.68;;
76953;SDS011;65893;51.698;-0.292;2024-03-08T14:00:10;23.10;;;12.27;;
76953;SDS011;65893;51.698;-0.292;2024-03-08T14:02:37;26.95;;;13.25;;
76953;SDS011;65893;51.698;-0.292;2024-03-08T14:05:08;25.48;;;12.98;;
76953;SDS011;65893;51.698;-0.292;2024-03-08T14:07:36;27.73;;;13.75;;
76953;SDS011;65893;51.698;-0.292;2024-03-08T14:10:02;28.10;;;13.10;;
76953;SDS011;65893;51.698;-0.292;2024-03-08T14:12:28;25.10;;;11.50;;
76953;SDS011;65893;51.698;-0.292;2024-03-08T14:14:54;29.50;;;13.45;;
76953;SDS011;65893;51.698;-0.292;2024-03-08T14:17:24;31.05;;;13.93;;
76953;SDS011;65893;51.698;-0.292;2024-03-08T14:19:52;24.40;;;12.45;;
76953;SDS011;65893;51.698;-0.292;2024-03-08T14:22:18;27.02;;;12.35;;
76953;SDS011;65893;51.698;-0.292;2024-03-08T14:24:45;22.88;;;11.82;;